createdAt,value
2022-11-08T00:00:07.953Z,101078.88
2022-11-08T00:02:34.527Z,101072.84
2022-11-08T00:05:19.408Z,101082.06
2022-11-08T00:08:04.327Z,101073.56
2022-11-08T00:10:49.013Z,101075.91
2022-11-08T00:13:33.842Z,101073.69
2022-11-08T00:16:01.243Z,101076.75
2022-11-08T00:18:27.675Z,101079.53
2022-11-08T00:20:54.101Z,101068.53
2022-11-08T00:23:20.750Z,101056.44
2022-11-08T00:25:53.654Z,101067.28
2022-11-08T00:28:20.417Z,101068.41
2022-11-08T00:30:46.864Z,101063.53
2022-11-08T00:33:13.253Z,101058.66
2022-11-08T00:35:39.689Z,101067.69
2022-11-08T00:38:06.118Z,101066.44
2022-11-08T00:40:32.520Z,101063.09
2022-11-08T00:42:58.928Z,101062.81
2022-11-08T00:45:25.471Z,101064.22
2022-11-08T00:47:51.850Z,101062.81
2022-11-08T00:50:18.285Z,101059.47
2022-11-08T00:52:44.682Z,101057.81
2022-11-08T00:55:11.098Z,101060.31
2022-11-08T00:57:54.094Z,101056.44
2022-11-08T01:00:24.321Z,101065.03
2022-11-08T01:03:13.263Z,101065.06
2022-11-08T01:05:39.867Z,101065.06
2022-11-08T01:08:06.317Z,101057.13
2022-11-08T01:10:32.789Z,101064.22
2022-11-08T01:12:59.121Z,101060.84
2022-11-08T01:15:25.493Z,101055.28
2022-11-08T01:17:51.884Z,101053.91
2022-11-08T01:20:18.217Z,101051.69
2022-11-08T01:22:44.537Z,101049.06
2022-11-08T01:25:10.842Z,101045.00
2022-11-08T01:27:37.169Z,101048.34
2022-11-08T01:30:04.204Z,101048.19
2022-11-08T01:32:30.952Z,101040.50
2022-11-08T01:34:57.274Z,101033.00
2022-11-08T01:37:23.593Z,101028.25
2022-11-08T01:39:49.896Z,101029.66
2022-11-08T01:42:16.194Z,101022.03
2022-11-08T01:45:07.640Z,101010.44
2022-11-08T01:47:34.366Z,101013.38
2022-11-08T01:50:06.272Z,101011.28
2022-11-08T01:52:39.805Z,101003.63
2022-11-08T01:55:15.825Z,100997.94
2022-11-08T01:57:48.274Z,100993.47
2022-11-08T02:00:15.131Z,100998.50
2022-11-08T02:02:43.757Z,100994.06
2022-11-08T02:05:25.419Z,101001.69
2022-11-08T02:08:16.901Z,100993.75
2022-11-08T02:10:47.898Z,100985.16
2022-11-08T02:13:17.417Z,100982.66
2022-11-08T02:15:44.228Z,100985.59
2022-11-08T02:18:12.949Z,100975.41
2022-11-08T02:20:43.251Z,100968.72
2022-11-08T02:23:16.418Z,100966.91
2022-11-08T02:25:42.758Z,100969.03
2022-11-08T02:28:09.074Z,100970.97
2022-11-08T02:30:37.404Z,100966.38
2022-11-08T02:33:18.340Z,100961.53
2022-11-08T02:35:48.226Z,100963.47
2022-11-08T02:38:14.834Z,100958.75
2022-11-08T02:40:51.257Z,100963.75
2022-11-08T02:43:17.788Z,100953.47
2022-11-08T02:45:44.164Z,100959.56
2022-11-08T02:48:11.401Z,100946.50
2022-11-08T02:50:37.774Z,100950.69
2022-11-08T02:53:04.146Z,100946.19
2022-11-08T02:55:30.920Z,100933.97
2022-11-08T02:57:57.263Z,100943.25
2022-11-08T03:00:23.645Z,100928.69
2022-11-08T03:02:57.495Z,100933.13
2022-11-08T03:05:26.397Z,100932.31
2022-11-08T03:07:54.027Z,100927.84
2022-11-08T03:10:20.683Z,100925.06
2022-11-08T03:12:47.173Z,100927.59
2022-11-08T03:15:14.275Z,100917.59
2022-11-08T03:17:40.751Z,100915.63
2022-11-08T03:20:08.120Z,100911.75
2022-11-08T03:22:34.431Z,100907.72
2022-11-08T03:25:00.730Z,100905.06
2022-11-08T03:27:27.075Z,100905.78
2022-11-08T03:29:53.380Z,100908.53
2022-11-08T03:32:19.710Z,100899.09
2022-11-08T03:34:46.041Z,100890.63
2022-11-08T03:37:12.354Z,100888.53
2022-11-08T03:39:38.703Z,100874.50
2022-11-08T03:42:05.423Z,100878.25
2022-11-08T03:44:32.638Z,100871.59
2022-11-08T03:47:00.239Z,100858.22
2022-11-08T03:49:27.054Z,100846.41
2022-11-08T03:51:54.473Z,100846.13
2022-11-08T03:54:20.855Z,100840.84
2022-11-08T03:56:47.363Z,100835.47
2022-11-08T03:59:13.861Z,100835.03
2022-11-08T04:01:40.357Z,100841.84
2022-11-08T04:04:07.015Z,100834.34
2022-11-08T04:06:33.639Z,100825.44
2022-11-08T04:08:59.982Z,100825.72
2022-11-08T04:11:44.776Z,100804.44
2022-11-08T04:14:29.974Z,100808.63
2022-11-08T04:16:56.439Z,100808.91
2022-11-08T04:19:41.509Z,100810.31
2022-11-08T04:22:10.948Z,100801.41
2022-11-08T04:24:37.530Z,100806.44
2022-11-08T04:27:04.216Z,100795.56
2022-11-08T04:29:30.659Z,100785.84
2022-11-08T04:31:57.076Z,100794.47
2022-11-08T04:34:23.432Z,100801.13
2022-11-08T04:36:49.768Z,100793.63
2022-11-08T04:39:16.209Z,100799.47
2022-11-08T04:41:42.517Z,100788.63
2022-11-08T04:44:09.234Z,100795.88
2022-11-08T04:46:36.294Z,100785.84
2022-11-08T04:49:02.630Z,100786.69
2022-11-08T04:51:31.823Z,100783.63
2022-11-08T04:54:00.755Z,100791.69
2022-11-08T04:56:29.339Z,100778.63
2022-11-08T04:58:58.013Z,100771.00
2022-11-08T05:01:28.077Z,100770.72
2022-11-08T05:03:55.305Z,100762.22
2022-11-08T05:06:24.422Z,100750.00
2022-11-08T05:08:51.217Z,100751.94
2022-11-08T05:11:21.572Z,100755.13
2022-11-08T05:13:49.411Z,100743.88
2022-11-08T05:16:24.485Z,100738.03
2022-11-08T05:18:51.497Z,100733.84
2022-11-08T05:21:38.372Z,100734.13
2022-11-08T05:24:06.774Z,100734.97
2022-11-08T05:26:34.971Z,100733.88
2022-11-08T05:29:01.352Z,100722.50
2022-11-08T05:31:27.758Z,100723.59
2022-11-08T05:33:54.091Z,100723.97
2022-11-08T05:36:21.202Z,100717.19
2022-11-08T05:38:47.859Z,100710.22
2022-11-08T05:41:20.299Z,100718.56
2022-11-08T05:43:49.085Z,100718.03
2022-11-08T05:46:15.821Z,100709.69
2022-11-08T05:48:43.759Z,100711.66
2022-11-08T05:51:11.969Z,100706.13
2022-11-08T05:53:39.299Z,100713.88
2022-11-08T05:56:05.794Z,100709.16
2022-11-08T05:58:34.745Z,100705.00
2022-11-08T06:01:16.039Z,100703.06
2022-11-08T06:03:42.662Z,100697.22
2022-11-08T06:06:20.505Z,100688.31
2022-11-08T06:08:50.651Z,100693.31
2022-11-08T06:11:23.844Z,100690.97
2022-11-08T06:13:51.490Z,100700.97
2022-11-08T06:16:19.665Z,100703.63
2022-11-08T06:18:46.875Z,100696.69
2022-11-08T06:21:15.993Z,100696.56
2022-11-08T06:23:42.780Z,100706.13
2022-11-08T06:26:09.667Z,100699.88
2022-11-08T06:28:36.330Z,100697.78
2022-11-08T06:31:03.593Z,100692.22
2022-11-08T06:33:30.271Z,100693.91
2022-11-08T06:35:56.602Z,100697.25
2022-11-08T06:38:23.002Z,100696.84
2022-11-08T06:40:49.354Z,100695.28
2022-11-08T06:43:19.659Z,100684.19
2022-11-08T06:45:46.867Z,100690.69
2022-11-08T06:48:13.170Z,100693.75
2022-11-08T06:50:39.555Z,100691.41
2022-11-08T06:53:08.392Z,100669.88
2022-11-08T06:55:35.465Z,100678.34
2022-11-08T06:58:02.240Z,100673.91
2022-11-08T07:00:28.919Z,100678.88
2022-11-08T07:02:57.177Z,100681.13
2022-11-08T07:05:24.178Z,100683.03
2022-11-08T07:07:53.378Z,100690.97
2022-11-08T07:10:22.130Z,100702.78
2022-11-08T07:12:50.805Z,100705.03
2022-11-08T07:15:17.256Z,100700.53
2022-11-08T07:17:43.578Z,100699.97
2022-11-08T07:20:10.440Z,100693.03
2022-11-08T07:22:36.802Z,100689.81
2022-11-08T07:25:03.322Z,100680.34
2022-11-08T07:27:30.023Z,100682.13
2022-11-08T07:29:56.351Z,100673.47
2022-11-08T07:32:22.789Z,100673.72
2022-11-08T07:34:49.138Z,100664.25
2022-11-08T07:37:15.478Z,100663.38
2022-11-08T07:39:41.786Z,100657.50
2022-11-08T07:42:08.145Z,100655.41
2022-11-08T07:44:34.455Z,100650.47
2022-11-08T07:47:00.771Z,100643.28
2022-11-08T07:49:27.105Z,100645.19
2022-11-08T07:51:53.439Z,100647.47
2022-11-08T07:54:19.769Z,100657.09
2022-11-08T07:56:46.097Z,100652.03
2022-11-08T07:59:12.533Z,100644.47
2022-11-08T08:01:38.899Z,100659.06
2022-11-08T08:04:05.580Z,100654.47
2022-11-08T08:06:31.928Z,100666.38
2022-11-08T08:08:58.258Z,100667.75
2022-11-08T08:11:27.180Z,100659.38
2022-11-08T08:13:57.290Z,100663.56
2022-11-08T08:16:23.619Z,100657.59
2022-11-08T08:18:55.970Z,100681.59
2022-11-08T08:21:22.823Z,100664.88
2022-11-08T08:23:49.151Z,100672.72
2022-11-08T08:26:15.495Z,100677.56
2022-11-08T08:28:41.812Z,100677.91
2022-11-08T08:31:08.175Z,100669.28
2022-11-08T08:33:34.975Z,100670.25
2022-11-08T08:36:01.750Z,100679.03
2022-11-08T08:38:28.509Z,100678.19
2022-11-08T08:40:54.872Z,100679.88
2022-11-08T08:43:21.630Z,100683.34
2022-11-08T08:45:48.930Z,100678.72
2022-11-08T08:48:15.636Z,100680.09
2022-11-08T08:50:42.294Z,100686.06
2022-11-08T08:53:10.309Z,100671.69
2022-11-08T08:55:39.134Z,100665.78
2022-11-08T08:58:05.931Z,100655.19
2022-11-08T09:03:19.453Z,100652.09
2022-11-08T09:05:46.708Z,100660.25
2022-11-08T09:08:14.458Z,100647.84
2022-11-08T09:10:41.305Z,100648.38
2022-11-08T09:13:07.633Z,100655.00
2022-11-08T09:15:34.043Z,100653.06
2022-11-08T09:18:00.419Z,100647.78
2022-11-08T09:20:26.833Z,100651.38
2022-11-08T09:22:53.171Z,100638.75
2022-11-08T09:25:19.649Z,100641.78
2022-11-08T09:27:45.976Z,100632.19
2022-11-08T09:30:12.561Z,100640.78
2022-11-08T09:32:59.607Z,100629.22
2022-11-08T09:35:25.413Z,100630.69
2022-11-08T09:37:54.782Z,100636.09
2022-11-08T09:40:27.699Z,100627.53
2022-11-08T09:43:20.575Z,100635.09
2022-11-08T09:45:49.242Z,100628.75
2022-11-08T09:48:41.889Z,100648.34
2022-11-08T09:51:18.120Z,100653.25
2022-11-08T09:53:59.506Z,100662.19
2022-11-08T09:56:29.766Z,100655.22
2022-11-08T09:59:05.608Z,100651.75
2022-11-08T10:01:36.415Z,100633.31
2022-11-08T10:04:06.944Z,100639.53
2022-11-08T10:07:15.278Z,100629.34
2022-11-08T10:10:07.821Z,100629.69
2022-11-08T10:13:01.285Z,100630.63
2022-11-08T10:15:43.094Z,100630.56
2022-11-08T10:18:21.766Z,100622.97
2022-11-08T10:20:49.144Z,100618.06
2022-11-08T10:23:33.998Z,100622.66
2022-11-08T10:26:09.590Z,100627.66
2022-11-08T10:28:44.359Z,100638.94
2022-11-08T10:31:13.375Z,100635.38
2022-11-08T10:33:47.269Z,100646.31
2022-11-08T10:36:25.453Z,100631.41
2022-11-08T10:38:54.590Z,100637.03
2022-11-08T10:41:33.583Z,100639.66
2022-11-08T10:44:06.621Z,100640.97
2022-11-08T10:46:41.591Z,100637.34
2022-11-08T10:49:22.690Z,100644.63
2022-11-08T10:51:53.869Z,100633.72
2022-11-08T10:54:39.279Z,100626.75
2022-11-08T10:57:05.624Z,100629.25
2022-11-08T10:59:32.889Z,100621.16
2022-11-08T11:01:59.796Z,100630.66
2022-11-08T11:04:29.747Z,100612.56
2022-11-08T11:07:02.211Z,100615.72
2022-11-08T11:09:28.881Z,100619.19
2022-11-08T11:12:07.653Z,100616.72
2022-11-08T11:14:33.985Z,100605.59
2022-11-08T11:17:14.168Z,100603.59
2022-11-08T11:19:44.186Z,100610.91
2022-11-08T11:22:12.108Z,100612.56
2022-11-08T11:24:50.357Z,100610.56
2022-11-08T11:27:31.953Z,100608.91
2022-11-08T11:30:20.053Z,100590.16
2022-11-08T11:32:56.533Z,100599.13
2022-11-08T11:35:25.249Z,100591.81
2022-11-08T11:37:53.861Z,100596.28
2022-11-08T11:40:44.713Z,100589.34
2022-11-08T11:43:36.302Z,100595.97
2022-11-08T11:46:11.670Z,100597.63
2022-11-08T11:48:47.214Z,100583.72
2022-11-08T11:51:14.235Z,100589.34
2022-11-08T11:53:47.567Z,100608.25
2022-11-08T11:56:43.365Z,100605.94
2022-11-08T11:59:30.144Z,100588.66
2022-11-08T12:02:14.784Z,100580.47
2022-11-08T12:05:02.974Z,100578.59
2022-11-08T12:07:32.875Z,100585.66
2022-11-08T12:10:17.912Z,100571.06
2022-11-08T12:13:21.482Z,100576.19
2022-11-08T12:16:16.414Z,100568.66
2022-11-08T12:19:00.217Z,100573.91
2022-11-08T12:21:54.798Z,100570.56
2022-11-08T12:24:54.186Z,100572.63
2022-11-08T12:27:23.219Z,100565.75
2022-11-08T12:30:07.851Z,100582.00
2022-11-08T12:33:03.987Z,100583.47
2022-11-08T12:35:55.258Z,100575.25
2022-11-08T12:38:34.333Z,100578.19
2022-11-08T12:41:24.588Z,100575.56
2022-11-08T12:44:05.937Z,100579.25
2022-11-08T12:47:06.525Z,100582.00
2022-11-08T12:49:43.432Z,100566.38
2022-11-08T12:52:40.565Z,100574.19
2022-11-08T12:55:17.226Z,100574.84
2022-11-08T12:57:45.286Z,100581.72
2022-11-08T13:00:18.174Z,100586.13
2022-11-08T13:03:09.144Z,100574.34
2022-11-08T13:05:42.738Z,100569.56
2022-11-08T13:08:15.538Z,100562.94
2022-11-08T13:10:56.889Z,100568.94
2022-11-08T13:13:50.606Z,100566.28
2022-11-08T13:16:21.412Z,100563.63
2022-11-08T13:18:54.014Z,100561.28
2022-11-08T13:21:26.157Z,100564.09
2022-11-08T13:23:53.304Z,100571.69
2022-11-08T13:26:26.445Z,100572.53
2022-11-08T13:28:53.727Z,100572.53
2022-11-08T13:31:41.804Z,100563.56
2022-11-08T13:34:23.349Z,100571.22
2022-11-08T13:37:04.005Z,100562.56
2022-11-08T13:40:02.359Z,100569.91
2022-11-08T13:42:37.633Z,100559.63
2022-11-08T13:45:26.112Z,100563.31
2022-11-08T13:47:57.822Z,100560.28
2022-11-08T13:50:27.150Z,100558.44
2022-11-08T13:53:19.797Z,100559.59
2022-11-08T13:55:55.296Z,100556.28
2022-11-08T13:58:38.380Z,100560.28
2022-11-08T14:01:09.182Z,100568.63
2022-11-08T14:03:35.482Z,100565.63
2022-11-08T14:06:04.840Z,100564.31
2022-11-08T14:09:13.450Z,100571.97
2022-11-08T14:11:52.391Z,100569.34
2022-11-08T14:14:35.030Z,100568.03
2022-11-08T14:17:26.536Z,100575.69
2022-11-08T14:19:53.740Z,100562.09
2022-11-08T14:22:27.064Z,100564.09
2022-11-08T14:24:56.061Z,100564.41
2022-11-08T14:27:37.512Z,100563.13
2022-11-08T14:30:06.422Z,100562.09
2022-11-08T14:32:32.821Z,100546.81
2022-11-08T14:35:22.514Z,100544.16
2022-11-08T14:37:49.169Z,100547.47
2022-11-08T14:40:25.042Z,100551.13
2022-11-08T14:42:51.925Z,100546.19
2022-11-08T14:45:25.689Z,100544.50
2022-11-08T14:47:58.675Z,100555.94
2022-11-08T14:50:32.077Z,100551.50
2022-11-08T14:53:17.518Z,100548.66
2022-11-08T14:55:44.283Z,100542.84
2022-11-08T14:58:14.325Z,100555.13
2022-11-08T15:00:45.625Z,100541.03
2022-11-08T15:03:17.417Z,100544.34
2022-11-08T15:06:04.020Z,100552.47
2022-11-08T15:08:32.871Z,100548.31
2022-11-08T15:11:03.942Z,100541.19
2022-11-08T15:13:42.917Z,100544.50
2022-11-08T15:16:10.305Z,100543.66
2022-11-08T15:18:39.297Z,100552.16
2022-11-08T15:21:11.554Z,100547.16
2022-11-08T15:23:49.574Z,100544.19
2022-11-08T15:26:33.948Z,100544.34
2022-11-08T15:29:12.323Z,100536.56
2022-11-08T15:31:44.311Z,100536.91
2022-11-08T15:34:32.790Z,100532.09
2022-11-08T15:36:59.213Z,100537.72
2022-11-08T15:39:36.614Z,100531.25
2022-11-08T15:42:10.929Z,100526.59
2022-11-08T15:45:01.815Z,100526.81
2022-11-08T15:47:45.959Z,100515.34
2022-11-08T15:50:15.454Z,100535.59
2022-11-08T15:52:42.683Z,100537.59
2022-11-08T15:55:13.720Z,100530.66
2022-11-08T15:57:42.751Z,100533.28
2022-11-08T16:00:17.743Z,100535.28
2022-11-08T16:02:44.971Z,100531.94
2022-11-08T16:05:16.518Z,100518.88
2022-11-08T16:07:45.977Z,100516.06
2022-11-08T16:10:13.859Z,100526.50
2022-11-08T16:12:42.448Z,100519.03
2022-11-08T16:15:17.638Z,100522.69
2022-11-08T16:17:44.014Z,100514.56
2022-11-08T16:20:17.562Z,100522.34
2022-11-08T16:22:43.945Z,100515.38
2022-11-08T16:25:10.267Z,100526.66
2022-11-08T16:27:36.630Z,100536.59
2022-11-08T16:30:12.524Z,100549.84
2022-11-08T16:32:38.822Z,100547.19
2022-11-08T16:35:05.627Z,100542.84
2022-11-08T16:37:32.096Z,100540.38
2022-11-08T16:39:58.565Z,100537.91
2022-11-08T16:42:25.383Z,100538.22
2022-11-08T16:44:51.692Z,100535.56
2022-11-08T16:47:19.506Z,100536.72
2022-11-08T16:49:51.432Z,100534.50
2022-11-08T16:52:17.918Z,100533.59
2022-11-08T16:54:44.256Z,100534.91
2022-11-08T16:59:56.855Z,100535.91
2022-11-08T17:02:34.101Z,100530.78
2022-11-08T17:05:00.401Z,100529.78
2022-11-08T17:07:28.012Z,100527.66
2022-11-08T17:09:54.424Z,100520.69
2022-11-08T17:12:21.544Z,100523.34
2022-11-08T17:14:47.913Z,100509.44
2022-11-08T17:17:15.190Z,100526.34
2022-11-08T17:19:41.575Z,100510.25
2022-11-08T17:22:07.883Z,100510.91
2022-11-08T17:24:34.250Z,100508.41
2022-11-08T17:27:01.120Z,100494.81
2022-11-08T17:29:27.443Z,100518.38
2022-11-08T17:31:53.793Z,100510.72
2022-11-08T17:34:20.127Z,100511.41
2022-11-08T17:36:46.490Z,100500.78
2022-11-08T17:39:15.713Z,100523.34
2022-11-08T17:41:42.047Z,100524.66
2022-11-08T17:44:08.620Z,100529.66
2022-11-08T17:46:34.961Z,100511.91
2022-11-08T17:49:01.329Z,100517.88
2022-11-08T17:51:27.650Z,100521.00
2022-11-08T17:53:53.975Z,100521.00
2022-11-08T17:56:20.308Z,100533.41
2022-11-08T17:58:46.640Z,100533.41
2022-11-08T18:01:13.096Z,100523.94
2022-11-08T18:03:39.544Z,100530.59
2022-11-08T18:06:11.238Z,100530.59
2022-11-08T18:08:37.822Z,100538.97
2022-11-08T18:11:04.262Z,100532.03
2022-11-08T18:13:31.296Z,100539.31
2022-11-08T18:16:15.633Z,100528.94
2022-11-08T18:18:42.686Z,100534.91
2022-11-08T18:21:09.277Z,100540.91
2022-11-08T18:23:39.413Z,100531.94
2022-11-08T18:26:05.793Z,100540.41
2022-11-08T18:28:32.218Z,100530.47
2022-11-08T18:31:10.504Z,100536.25
2022-11-08T18:33:37.716Z,100549.50
2022-11-08T18:36:09.965Z,100533.59
2022-11-08T18:38:39.010Z,100531.28
2022-11-08T18:41:06.645Z,100523.69
2022-11-08T18:43:33.975Z,100537.94
2022-11-08T18:46:09.203Z,100532.13
2022-11-08T18:48:35.738Z,100527.47
2022-11-08T18:51:06.925Z,100524.16
2022-11-08T18:53:34.100Z,100527.81
2022-11-08T18:56:00.791Z,100523.69
2022-11-08T18:58:27.365Z,100536.91
2022-11-08T19:00:56.819Z,100537.91
2022-11-08T19:03:24.148Z,100543.38
2022-11-08T19:05:50.795Z,100552.50
2022-11-08T19:08:19.861Z,100538.38
2022-11-08T19:11:06.221Z,100543.03
2022-11-08T19:13:34.273Z,100539.63
2022-11-08T19:16:06.470Z,100547.16
2022-11-08T19:18:34.011Z,100546.50
2022-11-08T19:21:04.877Z,100542.09
2022-11-08T19:23:32.459Z,100538.16
2022-11-08T19:26:01.240Z,100544.13
2022-11-08T19:28:32.700Z,100537.63
2022-11-08T19:30:59.545Z,100537.16
2022-11-08T19:33:27.364Z,100538.44
2022-11-08T19:35:54.337Z,100540.78
2022-11-08T19:38:22.393Z,100529.00
2022-11-08T19:40:48.845Z,100539.44
2022-11-08T19:43:16.780Z,100530.81
2022-11-08T19:45:50.622Z,100524.69
2022-11-08T19:48:18.226Z,100526.84
2022-11-08T19:50:44.739Z,100532.16
2022-11-08T19:53:11.057Z,100534.16
2022-11-08T19:55:37.440Z,100527.03
2022-11-08T19:58:04.119Z,100520.25
2022-11-08T20:00:30.694Z,100528.19
2022-11-08T20:02:57.023Z,100533.50
2022-11-08T20:05:23.387Z,100526.22
2022-11-08T20:07:50.495Z,100530.38
2022-11-08T20:10:17.496Z,100536.16
2022-11-08T20:12:43.946Z,100543.09
2022-11-08T20:15:10.549Z,100553.69
2022-11-08T20:17:36.871Z,100545.72
2022-11-08T20:20:05.549Z,100543.03
2022-11-08T20:22:32.004Z,100537.75
2022-11-08T20:24:58.339Z,100555.50
2022-11-08T20:27:24.725Z,100545.38
2022-11-08T20:29:51.731Z,100546.38
2022-11-08T20:32:18.074Z,100547.53
2022-11-08T20:34:46.117Z,100558.97
2022-11-08T20:37:14.380Z,100558.63
2022-11-08T20:39:41.061Z,100564.91
2022-11-08T20:42:07.387Z,100570.88
2022-11-08T20:44:33.762Z,100565.25
2022-11-08T20:47:05.518Z,100557.78
2022-11-08T20:49:32.767Z,100563.56
2022-11-08T20:51:59.140Z,100561.91
2022-11-08T20:54:25.453Z,100559.25
2022-11-08T20:56:51.826Z,100573.16
2022-11-08T20:59:18.309Z,100569.19
2022-11-08T21:01:44.761Z,100573.16
2022-11-08T21:04:11.193Z,100576.41
2022-11-08T21:06:37.795Z,100570.28
2022-11-08T21:09:30.129Z,100575.38
2022-11-08T21:11:52.137Z,100579.97
2022-11-08T21:14:18.507Z,100572.97
2022-11-08T21:17:14.747Z,100579.59
2022-11-08T21:19:31.118Z,100575.78
2022-11-08T21:22:14.836Z,100575.28
2022-11-08T21:24:42.132Z,100574.59
2022-11-08T21:27:08.669Z,100572.56
2022-11-08T21:29:35.013Z,100576.84
2022-11-08T21:32:01.502Z,100567.94
2022-11-08T21:34:32.623Z,100578.53
2022-11-08T21:36:59.257Z,100569.06
2022-11-08T21:39:25.912Z,100570.25
2022-11-08T21:41:52.342Z,100567.94
2022-11-08T21:44:19.736Z,100568.63
2022-11-08T21:46:46.288Z,100576.94
2022-11-08T21:49:13.607Z,100577.25
2022-11-08T21:51:39.954Z,100588.31
2022-11-08T21:54:06.580Z,100577.66
2022-11-08T21:56:34.575Z,100590.44
2022-11-08T21:59:01.961Z,100592.72
2022-11-08T22:01:30.536Z,100592.72
2022-11-08T22:03:58.292Z,100591.81
2022-11-08T22:06:24.729Z,100586.38
2022-11-08T22:08:51.271Z,100594.44
2022-11-08T22:11:17.874Z,100595.72
2022-11-08T22:13:44.259Z,100592.09
2022-11-08T22:16:10.576Z,100592.84
2022-11-08T22:18:58.777Z,100597.09
2022-11-08T22:21:39.978Z,100593.50
2022-11-08T22:24:09.820Z,100604.41
2022-11-08T22:26:36.841Z,100592.22
2022-11-08T22:29:03.546Z,100577.97
2022-11-08T22:31:30.815Z,100576.00
2022-11-08T22:33:57.233Z,100585.31
2022-11-08T22:36:23.558Z,100581.28
2022-11-08T22:38:49.901Z,100592.91
2022-11-08T22:41:18.645Z,100584.97
2022-11-08T22:43:46.012Z,100589.59
2022-11-08T22:46:13.615Z,100585.72
2022-11-08T22:48:40.271Z,100593.13
2022-11-08T22:51:07.352Z,100592.41
2022-11-08T22:53:33.973Z,100600.53
2022-11-08T22:56:08.277Z,100602.03
2022-11-08T22:58:37.264Z,100599.16
2022-11-08T23:01:03.669Z,100599.75
2022-11-08T23:03:29.993Z,100599.03
2022-11-08T23:05:57.458Z,100602.06
2022-11-08T23:08:25.738Z,100593.03
2022-11-08T23:11:10.996Z,100591.00
2022-11-08T23:13:56.586Z,100584.22
2022-11-08T23:16:34.971Z,100583.38
2022-11-08T23:19:21.984Z,100582.25
2022-11-08T23:22:06.676Z,100590.22
2022-11-08T23:24:33.248Z,100573.72
2022-11-08T23:27:19.822Z,100582.66
2022-11-08T23:30:05.058Z,100585.75
2022-11-08T23:32:31.745Z,100588.78
2022-11-08T23:34:58.271Z,100593.75
2022-11-08T23:37:24.718Z,100589.28
2022-11-08T23:40:09.486Z,100582.66
2022-11-08T23:42:54.705Z,100582.28
2022-11-08T23:45:21.225Z,100582.13
2022-11-08T23:47:47.683Z,100574.97
2022-11-08T23:50:14.025Z,100578.66
2022-11-08T23:52:40.357Z,100584.63
2022-11-08T23:55:07.057Z,100585.66
2022-11-08T23:57:33.362Z,100583.47
2022-11-08T23:59:59.711Z,100584.97
